Time;durP1;ratioP1;P1;durP2;ratioP2;P2;SDS_P1;SDS_P2;PMS_P1;PMS_P2;Temp;Humidity;BMP_temperature;BMP_pressure;BME280_temperature;BME280_humidity;BME280_pressure;Samples;Min_cycle;Max_cycle;Signal;HPM_P1;HPM_P2
2020/12/09 00:11:10;;;;;;;55.25;24.80;;;;;;;-0.81;100.00;100580.22;10714693;82;21544;-84
2020/12/09 00:26:18;;;;;;;41.57;16.67;;;;;;;-0.80;100.00;100583.20;10599526;82;21089;-88
2020/12/09 00:41:27;;;;;;;54.35;21.25;;;;;;;-0.66;100.00;100586.12;10486009;83;21315;-87
2020/12/09 00:56:31;;;;;;;;;;;;;;;-0.63;100.00;100589.00;10496987;83;21003;-87
2020/12/09 01:11:35;;;;;;;53.35;22.25;;;;;;;-0.63;100.00;100587.28;10482525;83;20689;-86
2020/12/09 01:26:39;;;;;;;45.65;21.17;;;;;;;-0.36;100.00;100600.90;10452012;83;21407;-87
2020/12/09 01:41:44;;;;;;;50.85;19.30;;;;;;;-0.30;100.00;100593.80;10685628;82;20993;-86
2020/12/09 01:57:09;;;;;;;58.25;23.77;;;;;;;-0.48;100.00;100592.31;10765174;82;21026;-83
2020/12/09 02:12:13;;;;;;;37.08;16.55;;;;;;;-0.45;100.00;100606.83;10681912;82;21101;-83
2020/12/09 02:27:17;;;;;;;53.02;21.97;;;;;;;-0.50;100.00;100594.13;10701858;82;21566;-83
2020/12/09 02:42:21;;;;;;;49.13;22.10;;;;;;;-0.57;100.00;100615.84;10499512;84;21036;-83
2020/12/09 02:57:26;;;;;;;48.25;22.27;;;;;;;-0.61;100.00;100617.69;10369076;85;21061;-82
2020/12/09 03:12:30;;;;;;;46.77;20.68;;;;;;;-0.59;100.00;100624.10;10398547;85;21489;-82
2020/12/09 03:27:34;;;;;;;45.23;19.75;;;;;;;-0.70;100.00;100623.17;10305574;85;21226;-86
2020/12/09 03:42:39;;;;;;;43.73;19.87;;;;;;;-0.64;100.00;100624.71;10458085;83;21120;-85
2020/12/09 03:57:44;;;;;;;74.12;30.88;;;;;;;-0.68;100.00;100612.38;10259867;84;21156;-85
2020/12/09 04:12:49;;;;;;;71.25;29.07;;;;;;;-0.87;100.00;100628.48;10307635;85;21040;-85
2020/12/09 04:27:53;;;;;;;40.43;19.20;;;;;;;-0.91;100.00;100617.05;10394881;85;21069;-82
2020/12/09 04:43:00;;;;;;;38.70;17.75;;;;;;;-0.97;100.00;100638.71;10406128;84;21020;-83
2020/12/09 04:58:16;;;;;;;38.02;17.77;;;;;;;-1.10;100.00;100637.45;10426559;85;21032;-82
2020/12/09 05:13:26;;;;;;;39.10;18.62;;;;;;;-1.14;100.00;100651.33;10460210;84;21038;-82
2020/12/09 05:28:30;;;;;;;43.60;20.72;;;;;;;-1.31;100.00;100658.32;10442051;84;21155;-82
2020/12/09 05:43:35;;;;;;;53.95;22.25;;;;;;;-1.71;100.00;100645.83;10461460;84;21071;-81
2020/12/09 05:58:42;;;;;;;62.17;25.45;;;;;;;-1.79;100.00;100645.69;10579222;82;21572;-81
2020/12/09 06:13:47;;;;;;;41.13;18.17;;;;;;;-1.81;100.00;100675.29;10405695;83;21073;-84
2020/12/09 06:28:51;;;;;;;47.93;20.55;;;;;;;-2.14;100.00;100679.72;10657514;83;21494;-85
2020/12/09 06:44:07;;;;;;;58.40;27.03;;;;;;;-1.97;100.00;100674.91;10821211;81;21194;-85
2020/12/09 06:59:27;;;;;;;98.23;35.30;;;;;;;-2.03;100.00;100680.26;10845479;81;21111;-85
2020/12/09 07:14:49;;;;;;;99.15;41.35;;;;;;;-1.85;100.00;100677.14;10821706;81;21531;-85
2020/12/09 07:29:56;;;;;;;97.33;37.15;;;;;;;-1.92;100.00;100664.50;10715392;82;21360;-86
2020/12/09 07:45:00;;;;;;;117.47;42.83;;;;;;;-1.75;100.00;100663.54;10649700;82;20977;-85
2020/12/09 08:00:09;;;;;;;172.22;73.30;;;;;;;-1.65;100.00;100664.11;10719045;82;21173;-82
2020/12/09 08:15:13;;;;;;;124.50;52.80;;;;;;;-1.45;100.00;100681.91;10666036;82;21052;-81
2020/12/09 08:30:27;;;;;;;137.62;46.68;;;;;;;-1.43;100.00;100687.87;10717655;81;21088;-82
2020/12/09 08:45:31;;;;;;;127.30;37.03;;;;;;;-1.23;100.00;100690.66;10786945;82;21080;-82
2020/12/09 09:00:37;;;;;;;81.25;27.20;;;;;;;-1.25;100.00;100693.72;10750886;82;21032;-82
2020/12/09 09:15:42;;;;;;;110.22;40.28;;;;;;;-1.31;100.00;100709.34;10743981;82;21540;-82
2020/12/09 09:30:46;;;;;;;217.82;60.03;;;;;;;-1.12;100.00;100707.47;10663343;82;21041;-82
2020/12/09 09:45:50;;;;;;;175.20;57.95;;;;;;;-0.94;100.00;100713.30;10661881;82;21139;-83
2020/12/09 10:00:55;;;;;;;200.65;64.53;;;;;;;-1.03;100.00;100696.86;10294624;85;21612;-84
2020/12/09 10:15:59;;;;;;;273.25;90.75;;;;;;;-1.08;100.00;100706.05;10297790;85;21045;-83
2020/12/09 10:31:04;;;;;;;215.20;71.35;;;;;;;-0.94;100.00;100697.02;10702771;82;21009;-83
2020/12/09 10:46:09;;;;;;;149.37;49.70;;;;;;;-1.15;100.00;100703.72;10665987;82;21014;-83
2020/12/09 11:01:13;;;;;;;250.35;90.70;;;;;;;-1.32;100.00;100697.82;10705090;82;21068;-84
2020/12/09 11:16:18;;;;;;;161.35;54.38;;;;;;;-1.06;100.00;100695.69;10645998;82;21070;-83
2020/12/09 11:31:24;;;;;;;106.07;33.92;;;;;;;-1.15;100.00;100683.12;10728317;82;21064;-83
2020/12/09 11:46:29;;;;;;;91.32;30.32;;;;;;;-1.49;100.00;100689.34;10813009;81;21078;-83
2020/12/09 12:01:33;;;;;;;110.48;41.37;;;;;;;-1.26;100.00;100676.58;10781655;82;21032;-82
2020/12/09 12:16:38;;;;;;;177.05;62.25;;;;;;;-1.37;100.00;100667.09;10839246;82;21509;-83
2020/12/09 12:31:42;;;;;;;75.25;31.48;;;;;;;-1.14;100.00;100659.05;10813348;82;21150;-83
2020/12/09 12:46:47;;;;;;;121.67;44.23;;;;;;;-1.47;100.00;100650.26;10787535;80;20984;-85
2020/12/09 13:01:52;;;;;;;116.97;40.03;;;;;;;-1.42;100.00;100649.20;10821306;80;21064;-85
2020/12/09 13:16:57;;;;;;;149.27;44.27;;;;;;;-1.74;100.00;100648.50;10737952;80;21091;-84
2020/12/09 13:32:01;;;;;;;163.95;47.98;;;;;;;-1.64;100.00;100665.77;10702608;80;21057;-84
2020/12/09 13:47:06;;;;;;;277.80;92.57;;;;;;;-1.53;100.00;100669.29;10695950;81;21423;-83
2020/12/09 14:02:10;;;;;;;217.57;72.05;;;;;;;-1.42;100.00;100654.36;10764297;81;21012;-82
2020/12/09 14:17:16;;;;;;;148.13;54.15;;;;;;;-1.31;100.00;100659.15;10651034;81;21077;-83
2020/12/09 14:32:23;;;;;;;301.18;81.95;;;;;;;-1.61;100.00;100660.55;10657745;82;21147;-85
2020/12/09 14:47:26;;;;;;;;;;;;;;;-1.43;100.00;100652.66;10806564;80;21033;-86
2020/12/09 15:02:40;;;;;;;203.12;63.90;;;;;;;-1.51;100.00;100654.20;10769773;80;20152;-85
2020/12/09 15:17:40;;;;;;;522.45;150.45;;;;;;;-1.67;100.00;100669.73;10793231;80;21123;-86
2020/12/09 15:32:47;;;;;;;402.55;126.75;;;;;;;-1.44;100.00;100654.88;10768004;80;21044;-85
2020/12/09 15:47:52;;;;;;;89.25;34.03;;;;;;;-1.35;100.00;100659.72;10700634;80;21451;-85
2020/12/09 16:02:56;;;;;;;245.42;72.35;;;;;;;-1.47;100.00;100633.07;10790555;80;21037;-85
2020/12/09 16:18:00;;;;;;;83.40;30.08;;;;;;;-1.50;100.00;100628.03;10783997;82;21028;-85
2020/12/09 16:33:06;;;;;;;230.70;86.75;;;;;;;-1.59;100.00;100617.58;10854000;82;21039;-84
2020/12/09 16:48:10;;;;;;;104.70;39.75;;;;;;;-1.47;100.00;100634.36;10859194;82;21453;-86
2020/12/09 17:03:15;;;;;;;265.62;96.02;;;;;;;-1.31;100.00;100632.12;10827010;80;21437;-85
2020/12/09 17:18:21;;;;;;;236.33;66.90;;;;;;;-1.33;100.00;100608.17;10792954;80;21036;-85
2020/12/09 17:33:25;;;;;;;131.87;44.50;;;;;;;-1.28;100.00;100605.44;10537853;82;21459;-86
2020/12/09 17:48:30;;;;;;;113.37;40.78;;;;;;;-1.31;100.00;100601.23;10648843;82;21159;-85
2020/12/09 18:03:35;;;;;;;147.57;49.23;;;;;;;-1.38;100.00;100584.33;10642083;82;21076;-85
2020/12/09 18:18:39;;;;;;;125.85;45.73;;;;;;;-1.25;100.00;100588.62;10650612;82;21527;-85
2020/12/09 18:33:44;;;;;;;100.85;36.28;;;;;;;-1.25;100.00;100586.88;10627191;83;21250;-85
2020/12/09 18:48:48;;;;;;;144.13;42.45;;;;;;;-1.10;100.00;100601.41;10626586;83;21201;-85
2020/12/09 19:03:52;;;;;;;60.12;23.50;;;;;;;-1.17;100.00;100590.02;10614419;83;21087;-84
2020/12/09 19:18:57;;;;;;;71.33;26.25;;;;;;;-1.08;100.00;100595.73;10626594;83;21450;-84
2020/12/09 19:34:05;;;;;;;113.27;39.77;;;;;;;-1.17;100.00;100605.47;10850867;82;21075;-85
2020/12/09 19:49:09;;;;;;;137.40;47.65;;;;;;;-1.19;100.00;100601.26;10853095;81;21071;-89
2020/12/09 20:04:14;;;;;;;104.97;34.10;;;;;;;-0.99;100.00;100592.02;10791675;80;21333;-88
2020/12/09 20:19:18;;;;;;;96.95;36.17;;;;;;;-0.92;100.00;100587.88;10792069;80;21084;-88
2020/12/09 20:34:22;;;;;;;102.45;37.95;;;;;;;-0.92;100.00;100560.84;10763578;80;21088;-85
2020/12/09 20:49:27;;;;;;;97.02;35.40;;;;;;;-0.78;100.00;100577.09;10754607;82;21066;-87
2020/12/09 21:04:40;;;;;;;110.88;37.17;;;;;;;-0.77;100.00;100573.59;10713183;81;21068;-86
2020/12/09 21:19:48;;;;;;;97.45;34.18;;;;;;;-0.74;100.00;100562.34;10316671;85;21123;-86
2020/12/09 21:34:53;;;;;;;117.13;37.50;;;;;;;-0.64;100.00;100571.42;10317431;84;21045;-90
2020/12/09 21:49:58;;;;;;;93.78;32.30;;;;;;;-0.54;100.00;100565.03;10722725;82;21053;-81
2020/12/09 22:05:05;;;;;;;82.33;27.77;;;;;;;-0.66;100.00;100561.64;10741078;82;21532;-80
2020/12/09 22:20:10;;;;;;;171.65;54.75;;;;;;;-0.66;100.00;100556.48;10316830;85;21024;-80
2020/12/09 22:35:16;;;;;;;123.00;41.27;;;;;;;-0.67;100.00;100558.66;10368555;84;21071;-81
2020/12/09 22:50:20;;;;;;;88.95;31.30;;;;;;;-0.71;100.00;100543.75;10419201;83;21741;-81
2020/12/09 23:05:25;;;;;;;105.78;38.50;;;;;;;-0.63;100.00;100552.49;10639285;82;21041;-82
2020/12/09 23:20:30;;;;;;;60.88;22.98;;;;;;;-0.79;100.00;100537.19;10412434;83;21220;-84
2020/12/09 23:35:38;;;;;;;70.90;27.43;;;;;;;-0.86;100.00;100533.58;10636391;82;21092;-90
2020/12/09 23:50:43;;;;;;;57.78;24.65;;;;;;;-0.84;100.00;100537.38;10670126;81;21080;-83
